Nearby METAR Reports

 

CXKE - Kemptville, Ontario, Canada
Distance from station: ESE 39km
Updated: 24/01/2019 02:00

 Wind from SW
Wind: SW 13 km/h
Temperature: 5°C
Wind Chill: 2°C
Dew Point: 4°C
Humidity: 93%
2019/01/24 07:00 CXKE 240700Z AUTO 22007KT 05/04 RMK AO1 2PAST HR SOG 30 5007 SLP011 P0001 T00500043 50002
CYOW - Ottawa Intl, Ontario, Canada
Distance from station: NE 43km
Updated: 24/01/2019 02:00
Light rain, Mist, Overcast
Light rain, Mist, Overcast
 Wind from SSW
Wind: SSW 11 km/h
Temperature: 3°C
Wind Chill: 0°C
Dew Point: 3°C
Humidity: 100%
Barometer: 1000.7 hPa
Summary: Light rain, Mist
Clouds: Overcast
Visibility: 2.4 km
Cloud details: Overcast 183 m
2019/01/24 07:00 CYOW 240700Z 21006KT 1 1/2SM -RA BR OVC006 03/03 A2955 RMK RA1SC7 SLP014
 
CYND - Gatineau Airport, Quebec, Canada
Distance from station: NE 64km
Updated: 23/01/2019 21:00
NOT Current
Light freezing, Rain, Mist, Overcast
Light freezing, Rain, Mist, Overcast
 Wind from E
Wind: E 9 km/h
Temperature: -5°C
Wind Chill: -9°C
Dew Point: -5°C
Humidity: 100%
Barometer: 1003.4 hPa
Summary: Light freezing, Rain, Mist
Clouds: Overcast
Visibility: 5 km
Cloud details: Overcast 122 m
2019/01/24 02:00 CYND 240200Z 09005KT 3SM -FZRA BR OVC004 M05/M05 A2963 RMK ST8 LAST STFD OBS/NEXT 241200 UTC SLP040
CYGK - Kingston, Ontario, CA
Distance from station: S 80km
Updated: 23/01/2019 23:00
NOT Current
Light rain, Overcast
Light rain, Overcast
 Wind from S
Wind: S 26 km/h, Gust: 37 km/h
Temperature: 3°C
Wind Chill: -2°C
Dew Point: 2°C
Humidity: 93%
Barometer: 1002.7 hPa
Summary: Light Rain
Clouds: Overcast
Visibility: 13 km
Cloud details: Few Clouds 305 m
Overcast 457 m
2019/01/24 04:00 CYGK 240400Z 19014G20KT 8SM -RA FEW010 OVC015 03/02 A2961 RMK SF2NS6 LAST STFD OBS/NEXT 241100 UTC SLP033